Time;durP1;ratioP1;P1;durP2;ratioP2;P2;SDS_P1;SDS_P2;PMS_P1;PMS_P2;Temp;Humidity;BMP_temperature;BMP_pressure;BME280_temperature;BME280_humidity;BME280_pressure;Samples;Min_cycle;Max_cycle;Signal;HPM_P1;HPM_P2
2023/11/14 00:01:44;;;;;;;1999.90;999.90;;;12.70;99.90;;;;;;4969646;28;20371;-73
2023/11/14 00:04:10;;;;;;;1999.90;999.90;;;12.80;99.90;;;;;;4970136;28;20034;-71
2023/11/14 00:06:35;;;;;;;1999.90;999.90;;;12.80;99.90;;;;;;4969412;28;20080;-73
2023/11/14 00:09:02;;;;;;;1999.90;999.90;;;12.80;99.90;;;;;;4973096;28;20117;-69
2023/11/14 00:11:33;;;;;;;1999.90;999.90;;;12.80;99.90;;;;;;4970798;28;20360;-72
2023/11/14 00:13:59;;;;;;;1999.90;999.90;;;12.90;99.90;;;;;;4964332;28;20324;-73
2023/11/14 00:16:25;;;;;;;1999.90;999.90;;;12.90;99.90;;;;;;4961687;28;20703;-73
2023/11/14 00:18:51;;;;;;;1999.90;999.90;;;12.90;99.90;;;;;;4971776;28;20280;-71
2023/11/14 00:21:18;;;;;;;1999.90;999.90;;;12.90;99.90;;;;;;4952096;28;20428;-72
2023/11/14 00:23:44;;;;;;;;;;;12.90;99.90;;;;;;4968728;28;20027;-71
2023/11/14 00:26:10;;;;;;;1999.90;999.90;;;12.90;99.90;;;;;;4970510;28;20291;-73
2023/11/14 00:28:36;;;;;;;1999.90;999.90;;;13.00;99.90;;;;;;4969542;28;20030;-72
2023/11/14 00:31:02;;;;;;;1999.90;999.90;;;13.00;99.90;;;;;;4970559;28;20034;-72
2023/11/14 00:33:28;;;;;;;1999.90;999.90;;;13.00;99.90;;;;;;4965775;28;20448;-72
2023/11/14 00:35:55;;;;;;;1999.90;999.90;;;13.10;99.90;;;;;;4969431;28;20063;-71
2023/11/14 00:38:21;;;;;;;1999.90;999.90;;;13.00;99.90;;;;;;4952217;28;20070;-72
2023/11/14 00:40:47;;;;;;;1999.90;999.90;;;13.00;99.90;;;;;;4964841;28;20053;-72
2023/11/14 00:43:14;;;;;;;1999.90;999.90;;;13.00;99.90;;;;;;4970507;28;20052;-72
2023/11/14 00:45:40;;;;;;;1999.90;999.90;;;13.00;99.90;;;;;;4970260;28;20058;-71
2023/11/14 00:48:06;;;;;;;1999.90;999.90;;;13.00;99.90;;;;;;4964838;28;20081;-71
2023/11/14 00:50:31;;;;;;;1999.90;999.90;;;13.00;99.90;;;;;;4967315;28;20035;-72
2023/11/14 00:52:58;;;;;;;1999.90;999.90;;;13.00;99.90;;;;;;4965402;28;20065;-72
2023/11/14 00:55:24;;;;;;;1999.90;999.90;;;12.90;99.90;;;;;;4956386;28;20059;-71
2023/11/14 00:57:49;;;;;;;1999.90;999.90;;;12.90;99.90;;;;;;4967722;28;20371;-71
2023/11/14 01:26:54;;;;;;;1999.90;999.90;;;12.90;99.90;;;;;;4954198;28;20069;-73
2023/11/14 01:29:19;;;;;;;1999.90;999.90;;;12.90;99.90;;;;;;4957548;28;20053;-73
2023/11/14 01:31:46;;;;;;;1999.90;999.90;;;12.90;99.90;;;;;;4966608;28;20806;-73
2023/11/14 01:34:12;;;;;;;1999.90;999.90;;;13.00;99.90;;;;;;4970647;28;20050;-71
2023/11/14 01:36:38;;;;;;;1999.90;999.90;;;12.90;99.90;;;;;;4968786;28;20077;-71
2023/11/14 01:39:05;;;;;;;1999.90;999.90;;;13.00;99.90;;;;;;4958970;28;20059;-72
2023/11/14 01:41:30;;;;;;;1999.90;999.90;;;13.00;99.90;;;;;;4970718;28;20099;-72
2023/11/14 01:43:56;;;;;;;1999.90;999.90;;;13.10;99.90;;;;;;4966642;28;20031;-72
2023/11/14 01:46:22;;;;;;;1999.90;999.90;;;13.10;99.90;;;;;;4970028;28;20317;-69
2023/11/14 01:48:50;;;;;;;1999.90;999.90;;;13.00;99.90;;;;;;4962641;28;20072;-73
2023/11/14 01:51:17;;;;;;;1999.90;999.90;;;13.00;99.90;;;;;;4962981;28;20400;-73
2023/11/14 01:53:43;;;;;;;1999.90;999.90;;;13.00;99.90;;;;;;4961191;28;20034;-71
2023/11/14 01:56:10;;;;;;;1999.90;999.90;;;13.00;99.90;;;;;;4960189;28;20032;-74
2023/11/14 01:58:36;;;;;;;1999.90;999.90;;;13.00;99.90;;;;;;4963113;28;20257;-73
2023/11/14 02:01:03;;;;;;;1999.90;999.90;;;12.90;99.90;;;;;;4963341;28;20035;-73
2023/11/14 02:03:30;;;;;;;1999.90;999.90;;;12.90;99.90;;;;;;4968077;28;20463;-72
2023/11/14 02:05:56;;;;;;;1999.90;999.90;;;12.80;99.90;;;;;;4964770;28;20035;-72
2023/11/14 02:08:22;;;;;;;1999.90;999.90;;;12.80;99.90;;;;;;4970686;28;20378;-71
2023/11/14 02:10:47;;;;;;;1999.90;999.90;;;12.70;99.90;;;;;;4973900;28;20061;-72
2023/11/14 02:13:13;;;;;;;1999.90;999.90;;;12.80;99.90;;;;;;4964032;28;20115;-72
2023/11/14 02:15:39;;;;;;;1999.90;999.90;;;12.70;99.90;;;;;;4971537;28;20027;-72
2023/11/14 02:18:05;;;;;;;1999.90;999.90;;;12.70;99.90;;;;;;4974834;28;20325;-72
2023/11/14 02:20:31;;;;;;;1999.90;999.90;;;12.70;99.90;;;;;;4977169;28;20030;-70
2023/11/14 02:22:59;;;;;;;1999.90;999.90;;;12.70;99.90;;;;;;4971338;28;20027;-72
2023/11/14 02:25:25;;;;;;;1999.90;999.90;;;12.70;99.90;;;;;;4972490;28;20070;-72
2023/11/14 02:27:51;;;;;;;1999.90;999.90;;;12.70;99.90;;;;;;4956877;28;20499;-71
2023/11/14 02:30:17;;;;;;;1999.90;999.90;;;12.70;99.90;;;;;;4970303;28;20027;-72
2023/11/14 02:32:42;;;;;;;1999.90;999.90;;;12.70;99.90;;;;;;4968208;28;20039;-72
2023/11/14 02:35:08;;;;;;;1999.90;999.90;;;12.70;99.90;;;;;;4973044;28;20027;-72
2023/11/14 02:37:34;;;;;;;1999.90;999.90;;;12.70;99.90;;;;;;4966006;28;20038;-73
2023/11/14 02:40:00;;;;;;;1999.90;999.90;;;12.80;99.90;;;;;;4967477;28;20054;-73
2023/11/14 02:42:26;;;;;;;1999.90;999.90;;;12.80;99.90;;;;;;4971742;28;20022;-72
2023/11/14 02:44:52;;;;;;;1999.90;999.90;;;12.80;99.90;;;;;;4963901;28;20110;-73
2023/11/14 02:47:18;;;;;;;1999.90;999.90;;;12.80;99.90;;;;;;4971902;28;20115;-72
2023/11/14 02:50:09;;;;;;;1999.90;999.90;;;12.80;99.90;;;;;;4961690;28;20362;-72
2023/11/14 02:52:38;;;;;;;1999.90;999.90;;;12.90;99.90;;;;;;4966519;28;20113;-72
2023/11/14 02:55:05;;;;;;;1999.90;999.90;;;12.90;99.90;;;;;;4959318;28;20027;-72
2023/11/14 02:57:31;;;;;;;1999.90;999.90;;;12.90;99.90;;;;;;4970696;28;20134;-72
2023/11/14 02:59:57;;;;;;;1999.90;999.90;;;12.90;99.90;;;;;;4971586;28;20102;-72
2023/11/14 03:02:23;;;;;;;1999.90;999.90;;;12.90;99.90;;;;;;4972705;28;20145;-72
2023/11/14 03:04:49;;;;;;;1999.90;999.90;;;12.90;99.90;;;;;;4973265;28;20046;-71
2023/11/14 03:07:14;;;;;;;1999.90;999.90;;;12.80;99.90;;;;;;4972996;28;20019;-72
2023/11/14 03:09:40;;;;;;;1999.90;999.90;;;12.90;99.90;;;;;;4981931;28;20049;-73
2023/11/14 03:12:06;;;;;;;1999.90;999.90;;;12.90;99.90;;;;;;4973630;28;20117;-73
2023/11/14 03:14:32;;;;;;;1999.90;999.90;;;12.90;99.90;;;;;;4973588;28;20026;-71
2023/11/14 03:16:58;;;;;;;1999.90;999.90;;;12.90;99.90;;;;;;4970797;28;20072;-71
2023/11/14 03:19:24;;;;;;;1999.90;999.90;;;13.00;99.90;;;;;;4973290;28;20445;-72
2023/11/14 03:21:50;;;;;;;1999.90;999.90;;;12.90;99.90;;;;;;4972825;28;20050;-71
2023/11/14 03:24:15;;;;;;;1999.90;999.90;;;13.00;99.90;;;;;;4968899;28;20030;-72
2023/11/14 03:26:42;;;;;;;1999.90;999.90;;;13.00;99.90;;;;;;4967762;28;20057;-72
2023/11/14 03:29:10;;;;;;;1999.90;999.90;;;13.00;99.90;;;;;;4970434;28;20035;-73
2023/11/14 03:31:37;;;;;;;1999.90;999.90;;;13.00;99.90;;;;;;4969576;28;20121;-71
2023/11/14 03:34:05;;;;;;;1999.90;999.90;;;13.00;99.90;;;;;;4967896;28;20359;-72
2023/11/14 03:36:31;;;;;;;1999.90;999.90;;;13.00;99.90;;;;;;4964386;28;20085;-72
2023/11/14 03:38:57;;;;;;;1999.90;999.90;;;13.00;99.90;;;;;;4958591;28;20067;-73
2023/11/14 03:41:23;;;;;;;1999.90;999.90;;;13.00;99.90;;;;;;4966939;28;20031;-70
2023/11/14 03:43:49;;;;;;;1999.90;999.90;;;13.00;99.90;;;;;;4970345;28;20073;-73
2023/11/14 03:46:14;;;;;;;1999.90;999.90;;;13.00;99.90;;;;;;4963063;28;20027;-73
2023/11/14 03:48:41;;;;;;;1999.90;999.90;;;13.00;99.90;;;;;;4967662;28;20038;-73
2023/11/14 03:51:09;;;;;;;1999.90;999.90;;;13.00;99.90;;;;;;4967407;28;20031;-71
2023/11/14 03:53:37;;;;;;;1999.90;999.90;;;13.00;99.90;;;;;;4970544;28;20088;-71
2023/11/14 03:56:04;;;;;;;1999.90;999.90;;;13.00;99.90;;;;;;4972994;28;20093;-73
2023/11/14 03:58:31;;;;;;;1999.90;999.90;;;13.00;99.90;;;;;;4973102;28;20023;-71
2023/11/14 04:00:57;;;;;;;;;;;13.00;99.90;;;;;;4971076;28;20318;-70
2023/11/14 04:03:22;;;;;;;1999.90;999.90;;;13.00;99.90;;;;;;4970604;28;19910;-71
2023/11/14 04:05:49;;;;;;;1999.90;999.90;;;13.00;99.90;;;;;;4972241;28;20030;-70
2023/11/14 04:08:15;;;;;;;;;;;13.00;99.90;;;;;;4984100;28;20039;-74
2023/11/14 04:10:42;;;;;;;1999.90;999.90;;;13.00;99.90;;;;;;4967029;28;19910;-71
2023/11/14 04:13:08;;;;;;;1999.90;999.90;;;13.00;99.90;;;;;;4966194;28;20045;-72
2023/11/14 04:15:33;;;;;;;1999.90;999.90;;;13.00;99.90;;;;;;4972675;28;20071;-71
2023/11/14 04:17:59;;;;;;;1999.90;999.90;;;13.00;99.90;;;;;;4972744;28;20042;-71
2023/11/14 04:20:25;;;;;;;1999.90;999.90;;;13.00;99.90;;;;;;4972650;28;20023;-72
2023/11/14 04:22:51;;;;;;;1999.90;999.90;;;13.00;99.90;;;;;;4969465;28;20038;-72
2023/11/14 04:25:17;;;;;;;1999.90;999.90;;;12.90;99.90;;;;;;4970281;28;20023;-72
2023/11/14 04:27:43;;;;;;;1999.90;999.90;;;12.90;99.90;;;;;;4972652;28;20053;-72
2023/11/14 04:30:10;;;;;;;1999.90;999.90;;;12.90;99.90;;;;;;4952827;28;20030;-70
2023/11/14 04:32:36;;;;;;;1999.90;999.90;;;12.90;99.90;;;;;;4952775;28;20043;-71
2023/11/14 04:35:03;;;;;;;1999.90;999.90;;;12.90;99.90;;;;;;4970716;28;20023;-70
2023/11/14 04:37:29;;;;;;;1999.90;999.90;;;12.90;99.90;;;;;;4962631;28;20028;-71
2023/11/14 04:39:54;;;;;;;1999.90;999.90;;;13.00;99.90;;;;;;4967311;28;20058;-72
2023/11/14 04:42:20;;;;;;;1999.90;999.90;;;12.90;99.90;;;;;;4966028;28;20272;-72
2023/11/14 04:44:50;;;;;;;1999.90;999.90;;;12.80;99.90;;;;;;4966723;28;20081;-73
2023/11/14 04:47:16;;;;;;;1999.90;999.90;;;12.80;99.90;;;;;;4966765;28;20102;-72
2023/11/14 04:49:44;;;;;;;1999.90;999.90;;;12.80;99.90;;;;;;4972300;28;20062;-72
2023/11/14 04:52:10;;;;;;;1999.90;999.90;;;12.80;99.90;;;;;;4970557;28;20111;-72
2023/11/14 04:54:36;;;;;;;1999.90;999.90;;;12.80;99.90;;;;;;4966503;28;20101;-71
2023/11/14 04:57:01;;;;;;;1999.90;999.90;;;12.80;99.90;;;;;;4971722;28;20031;-71
2023/11/14 04:59:27;;;;;;;1999.90;999.90;;;12.80;99.90;;;;;;4972136;28;20424;-72
2023/11/14 05:01:53;;;;;;;1999.90;999.90;;;12.80;99.90;;;;;;4971712;28;20052;-72
2023/11/14 05:04:18;;;;;;;1999.90;999.90;;;12.80;99.90;;;;;;4971518;28;20076;-73
2023/11/14 05:06:44;;;;;;;1999.90;999.90;;;12.80;99.90;;;;;;4972290;28;20019;-73
2023/11/14 05:09:13;;;;;;;1999.90;999.90;;;12.80;99.90;;;;;;4969790;28;20488;-73
2023/11/14 05:11:39;;;;;;;1999.90;999.90;;;12.80;99.90;;;;;;4972720;28;20077;-72
2023/11/14 05:14:08;;;;;;;1999.90;999.90;;;12.80;99.90;;;;;;4974497;28;20022;-72
2023/11/14 05:16:43;;;;;;;1999.90;999.90;;;12.80;99.90;;;;;;4975314;28;20076;-72
2023/11/14 05:19:11;;;;;;;1999.90;999.90;;;12.80;99.90;;;;;;4975293;28;20034;-72
2023/11/14 05:21:37;;;;;;;1999.90;999.90;;;12.70;99.90;;;;;;4973032;28;20022;-72
2023/11/14 05:24:04;;;;;;;1999.90;999.90;;;12.70;99.90;;;;;;4973574;28;20015;-72
2023/11/14 05:26:29;;;;;;;1999.90;999.90;;;12.70;99.90;;;;;;4973669;28;21217;-72
2023/11/14 05:28:55;;;;;;;1999.90;999.90;;;12.70;99.90;;;;;;4975235;28;20030;-72
2023/11/14 05:31:21;;;;;;;1999.90;999.90;;;12.70;99.90;;;;;;4975017;28;20110;-72
2023/11/14 05:33:47;;;;;;;1999.90;999.90;;;12.60;99.90;;;;;;4975144;28;20030;-73
2023/11/14 05:36:14;;;;;;;1999.90;999.90;;;12.50;99.90;;;;;;4975410;28;20031;-72
2023/11/14 05:38:39;;;;;;;1999.90;999.90;;;12.60;99.90;;;;;;4974459;28;20088;-72
2023/11/14 05:41:05;;;;;;;1999.90;999.90;;;12.60;99.90;;;;;;4963443;28;20035;-72
2023/11/14 05:43:31;;;;;;;1999.90;999.90;;;12.60;99.90;;;;;;4971677;28;20429;-72
2023/11/14 05:45:57;;;;;;;1999.90;999.90;;;12.70;99.90;;;;;;4968920;28;20031;-72
2023/11/14 05:48:23;;;;;;;1999.90;999.90;;;12.70;99.90;;;;;;4974488;28;20022;-72
2023/11/14 05:50:49;;;;;;;1999.90;999.90;;;12.60;99.90;;;;;;4975006;28;20027;-71
2023/11/14 05:53:15;;;;;;;1999.90;999.90;;;12.50;99.90;;;;;;4974986;28;20329;-72
2023/11/14 05:55:42;;;;;;;1999.90;999.90;;;12.60;99.90;;;;;;4959654;28;20065;-72
2023/11/14 05:58:08;;;;;;;1999.90;999.90;;;12.60;99.90;;;;;;4975083;28;20432;-73
2023/11/14 06:00:33;;;;;;;1999.90;999.90;;;12.50;99.90;;;;;;4972103;28;20595;-73
2023/11/14 06:02:59;;;;;;;1999.90;999.90;;;12.50;99.90;;;;;;4965838;28;20253;-72
2023/11/14 06:05:25;;;;;;;1999.90;999.90;;;12.50;99.90;;;;;;4968841;28;20107;-72
2023/11/14 06:07:51;;;;;;;1999.90;999.90;;;12.50;99.90;;;;;;4961350;28;20030;-72
2023/11/14 06:10:16;;;;;;;1999.90;999.90;;;12.60;99.90;;;;;;4961822;28;20032;-72
2023/11/14 06:12:43;;;;;;;1999.90;999.90;;;12.60;99.90;;;;;;4974020;28;20490;-72
2023/11/14 06:15:10;;;;;;;1999.90;999.90;;;12.60;99.90;;;;;;4973459;28;20066;-71
2023/11/14 06:17:36;;;;;;;1999.90;999.90;;;12.70;99.90;;;;;;4974447;28;20031;-72
2023/11/14 06:20:07;;;;;;;1999.90;999.90;;;12.60;99.90;;;;;;4973827;28;20478;-72
2023/11/14 06:22:33;;;;;;;1999.90;999.90;;;12.70;99.90;;;;;;4974511;28;20114;-73
2023/11/14 06:25:00;;;;;;;1999.90;999.90;;;12.70;99.90;;;;;;4973038;28;20456;-72
2023/11/14 06:27:26;;;;;;;1999.90;999.90;;;12.70;99.90;;;;;;4999591;28;20500;-73
2023/11/14 06:29:52;;;;;;;1999.90;999.90;;;12.70;99.90;;;;;;4970369;28;20038;-73
2023/11/14 06:32:17;;;;;;;1999.90;999.90;;;12.70;99.90;;;;;;4974467;28;20092;-74
2023/11/14 06:34:43;;;;;;;1999.90;999.90;;;12.70;99.90;;;;;;4958937;28;20031;-70
2023/11/14 06:37:09;;;;;;;1999.90;999.90;;;12.70;99.90;;;;;;4983331;28;20024;-71
2023/11/14 06:39:35;;;;;;;1999.90;999.90;;;12.70;99.90;;;;;;4966695;28;20042;-72
2023/11/14 06:42:00;;;;;;;1999.90;999.90;;;12.70;99.90;;;;;;4973652;28;20038;-70
2023/11/14 06:44:26;;;;;;;1999.90;999.90;;;12.60;99.90;;;;;;4971354;28;20079;-72
2023/11/14 06:46:52;;;;;;;1999.90;999.90;;;12.60;99.90;;;;;;4970445;28;20027;-72
2023/11/14 06:49:18;;;;;;;1999.90;999.90;;;12.60;99.90;;;;;;4974071;28;20031;-73
2023/11/14 06:51:43;;;;;;;1999.90;999.90;;;12.70;99.90;;;;;;4972398;28;20031;-72
2023/11/14 06:54:09;;;;;;;1999.90;999.90;;;12.60;99.90;;;;;;4974184;28;20031;-72
2023/11/14 06:56:35;;;;;;;1999.90;999.90;;;12.60;99.90;;;;;;4960728;28;20073;-70
2023/11/14 06:59:01;;;;;;;1999.90;999.90;;;12.60;99.90;;;;;;4972000;28;20409;-72
2023/11/14 07:01:27;;;;;;;1999.90;999.90;;;12.70;99.90;;;;;;4962465;28;20035;-72
2023/11/14 07:03:53;;;;;;;1999.90;999.90;;;12.70;99.90;;;;;;4970263;28;20027;-72
2023/11/14 07:06:19;;;;;;;1999.90;999.90;;;12.70;99.90;;;;;;4973809;28;20023;-71
2023/11/14 07:08:45;;;;;;;1999.90;999.90;;;12.70;99.90;;;;;;4958604;28;20402;-73
2023/11/14 07:11:11;;;;;;;1999.90;999.90;;;12.70;99.90;;;;;;4973874;28;20042;-73
2023/11/14 07:13:38;;;;;;;1999.90;999.90;;;12.60;99.90;;;;;;4969420;28;20024;-73
2023/11/14 07:16:04;;;;;;;1999.90;999.90;;;12.70;99.90;;;;;;4972206;28;20030;-71
2023/11/14 07:18:30;;;;;;;1999.90;999.90;;;12.60;99.90;;;;;;4973656;28;20030;-71
2023/11/14 07:20:55;;;;;;;1999.90;999.90;;;12.60;99.90;;;;;;4973488;28;20043;-75
2023/11/14 07:23:22;;;;;;;1999.90;999.90;;;12.60;99.90;;;;;;4973175;28;20022;-71
2023/11/14 07:25:47;;;;;;;1999.90;999.90;;;12.60;99.90;;;;;;4972459;28;20025;-72
2023/11/14 07:28:13;;;;;;;1999.90;999.90;;;12.60;99.90;;;;;;4973140;28;20105;-71
2023/11/14 07:30:39;;;;;;;1999.90;999.90;;;12.60;99.90;;;;;;4973589;28;20100;-72
2023/11/14 07:33:05;;;;;;;1999.90;999.90;;;12.50;99.90;;;;;;4971865;28;20115;-73
2023/11/14 07:35:31;;;;;;;1999.90;999.90;;;12.60;99.90;;;;;;4965393;28;20089;-71
2023/11/14 07:38:00;;;;;;;1999.90;999.90;;;12.60;99.90;;;;;;4966502;28;20058;-72
2023/11/14 07:40:26;;;;;;;1999.90;999.90;;;12.60;99.90;;;;;;4969289;28;20042;-71
2023/11/14 07:42:51;;;;;;;1999.90;999.90;;;12.60;99.90;;;;;;4972477;28;20290;-71
2023/11/14 07:45:20;;;;;;;1999.90;999.90;;;12.70;99.90;;;;;;4966517;28;20062;-72
2023/11/14 07:47:45;;;;;;;1999.90;999.90;;;12.70;99.90;;;;;;4972515;28;20022;-71
2023/11/14 07:50:11;;;;;;;1999.90;999.90;;;12.70;99.90;;;;;;4973126;28;20478;-72
2023/11/14 07:52:37;;;;;;;1999.90;999.90;;;12.70;99.90;;;;;;4984936;28;20050;-73
2023/11/14 07:55:04;;;;;;;1999.90;999.90;;;12.70;99.90;;;;;;4980918;28;20323;-72
2023/11/14 07:57:30;;;;;;;1999.90;999.90;;;12.70;99.90;;;;;;4975450;28;20436;-71
2023/11/14 07:59:58;;;;;;;1999.90;999.90;;;12.80;99.90;;;;;;4975499;28;20081;-72
2023/11/14 08:02:23;;;;;;;1999.90;999.90;;;12.80;99.90;;;;;;5003304;28;20366;-72
2023/11/14 08:04:52;;;;;;;1999.90;999.90;;;12.80;99.90;;;;;;5023837;28;20047;-72
2023/11/14 08:07:19;;;;;;;1999.90;999.90;;;12.80;99.90;;;;;;4967022;28;20420;-72
2023/11/14 08:09:45;;;;;;;1999.90;999.90;;;12.80;99.90;;;;;;4967838;28;20093;-73
2023/11/14 08:12:11;;;;;;;1999.90;999.90;;;12.80;99.90;;;;;;4977399;28;20022;-72
2023/11/14 08:14:39;;;;;;;1999.90;999.90;;;12.70;99.90;;;;;;4984053;28;20083;-71
2023/11/14 08:17:04;;;;;;;1999.90;999.90;;;12.80;99.90;;;;;;4972752;28;20027;-72
2023/11/14 08:19:30;;;;;;;1999.90;999.90;;;12.80;99.90;;;;;;4971036;28;20076;-73
2023/11/14 08:22:03;;;;;;;1999.90;999.90;;;12.80;99.90;;;;;;4965670;28;20061;-72
2023/11/14 08:24:29;;;;;;;1999.90;999.90;;;12.80;99.90;;;;;;4970555;28;20069;-72
2023/11/14 08:26:55;;;;;;;1999.90;999.90;;;12.90;99.90;;;;;;4966471;28;20488;-71
2023/11/14 08:29:23;;;;;;;1999.90;999.90;;;13.00;99.90;;;;;;4969159;28;20078;-72
2023/11/14 08:31:49;;;;;;;1999.90;999.90;;;13.00;99.90;;;;;;4960467;28;20344;-72
2023/11/14 08:34:15;;;;;;;1999.90;999.90;;;13.10;99.90;;;;;;4971431;28;20121;-72
2023/11/14 08:36:41;;;;;;;1999.90;999.90;;;13.10;99.90;;;;;;4962118;28;20042;-72
2023/11/14 08:39:09;;;;;;;1999.90;999.90;;;13.10;99.90;;;;;;4971918;28;20337;-72
2023/11/14 08:41:40;;;;;;;1999.90;999.90;;;13.10;99.90;;;;;;4977757;28;20037;-72
2023/11/14 08:44:07;;;;;;;1999.90;999.90;;;13.20;99.90;;;;;;4973471;28;20064;-72
2023/11/14 08:46:34;;;;;;;1999.90;999.90;;;13.20;99.90;;;;;;4964708;28;20027;-71
2023/11/14 08:49:00;;;;;;;1999.90;999.90;;;13.20;99.90;;;;;;4964149;28;20402;-72
2023/11/14 08:51:26;;;;;;;1999.90;999.90;;;13.20;99.90;;;;;;4970942;28;20039;-72
2023/11/14 08:53:52;;;;;;;1999.90;999.90;;;13.30;99.90;;;;;;4967375;28;20030;-72
2023/11/14 08:56:18;;;;;;;1999.90;999.90;;;13.30;99.90;;;;;;4975495;28;20065;-71
2023/11/14 08:58:44;;;;;;;1999.90;999.90;;;13.40;99.90;;;;;;4964960;28;20284;-71
2023/11/14 09:01:11;;;;;;;1999.90;999.90;;;13.40;99.90;;;;;;4974591;28;20409;-71
2023/11/14 09:03:37;;;;;;;1999.90;999.90;;;13.40;99.90;;;;;;4973204;28;20110;-71
2023/11/14 09:06:04;;;;;;;1999.90;999.90;;;13.40;99.90;;;;;;4978399;28;20042;-72
2023/11/14 09:08:29;;;;;;;1999.90;999.90;;;13.40;99.90;;;;;;4971918;28;20031;-71
2023/11/14 09:10:56;;;;;;;1999.90;999.90;;;13.40;99.90;;;;;;4982192;28;20031;-73
2023/11/14 09:13:21;;;;;;;1999.90;999.90;;;13.50;99.90;;;;;;4976072;28;20031;-72
2023/11/14 09:15:48;;;;;;;1999.90;999.90;;;13.50;99.90;;;;;;4968839;28;20130;-72
2023/11/14 09:18:14;;;;;;;;;;;13.50;99.90;;;;;;4972835;28;20018;-72
2023/11/14 09:20:40;;;;;;;1999.90;999.90;;;13.50;99.90;;;;;;4986417;28;19912;-73
2023/11/14 09:23:06;;;;;;;1999.90;999.90;;;13.50;99.90;;;;;;4981537;28;20109;-72
2023/11/14 09:25:32;;;;;;;1999.90;999.90;;;13.50;99.90;;;;;;4982487;28;20363;-73
2023/11/14 09:27:59;;;;;;;1999.90;999.90;;;13.50;99.90;;;;;;5007311;28;20029;-72
2023/11/14 09:30:25;;;;;;;1999.90;999.90;;;13.60;99.90;;;;;;4967414;28;20477;-72
2023/11/14 09:32:51;;;;;;;1999.90;999.90;;;13.60;99.90;;;;;;4970714;28;20039;-72
2023/11/14 09:35:17;;;;;;;1999.90;999.90;;;13.70;99.90;;;;;;4973357;28;20026;-73
2023/11/14 09:37:43;;;;;;;1999.90;999.90;;;13.80;99.90;;;;;;4977860;28;20030;-72
2023/11/14 09:40:13;;;;;;;1999.90;999.90;;;13.80;99.90;;;;;;4979529;28;20303;-71
2023/11/14 09:42:39;;;;;;;1999.90;999.90;;;13.90;99.90;;;;;;4974392;28;20046;-73
2023/11/14 09:45:05;;;;;;;1999.90;999.90;;;13.90;99.90;;;;;;4965407;28;20688;-72
2023/11/14 09:47:31;;;;;;;1999.90;999.90;;;13.90;99.90;;;;;;4986947;28;20021;-72
2023/11/14 09:49:58;;;;;;;1999.90;999.90;;;13.80;99.90;;;;;;4972406;28;20050;-73
2023/11/14 09:52:24;;;;;;;;;;;13.70;99.90;;;;;;4977460;28;20026;-72
2023/11/14 09:54:51;;;;;;;1999.90;999.90;;;13.60;99.90;;;;;;4960991;28;19928;-72
2023/11/14 09:57:19;;;;;;;1999.90;999.90;;;13.60;99.90;;;;;;4968596;28;20030;-71
2023/11/14 09:59:45;;;;;;;1999.90;999.90;;;13.70;99.90;;;;;;4977230;28;20030;-71
2023/11/14 10:02:11;;;;;;;1999.90;999.90;;;13.70;99.90;;;;;;4971991;28;20025;-73
2023/11/14 10:04:44;;;;;;;1999.90;999.90;;;13.90;99.90;;;;;;4976939;28;20031;-72
2023/11/14 10:07:17;;;;;;;1999.90;999.90;;;13.90;99.90;;;;;;4963225;28;20030;-72
2023/11/14 10:09:43;;;;;;;1999.90;999.90;;;14.00;99.90;;;;;;4980042;28;20110;-73
2023/11/14 10:12:09;;;;;;;1999.90;999.90;;;14.10;99.90;;;;;;4975820;28;20031;-73
2023/11/14 10:14:44;;;;;;;1999.90;999.90;;;14.20;99.90;;;;;;4977628;28;20088;-73
2023/11/14 10:17:12;;;;;;;1999.90;999.90;;;14.20;99.90;;;;;;4976865;28;20272;-72
2023/11/14 10:19:57;;;;;;;1999.90;999.90;;;14.20;99.90;;;;;;4973630;28;20502;-72
2023/11/14 10:22:23;;;;;;;1999.90;999.90;;;14.10;99.90;;;;;;4977717;28;20021;-72
2023/11/14 10:24:50;;;;;;;1999.90;999.90;;;14.10;99.90;;;;;;4977670;28;20436;-72
2023/11/14 10:27:29;;;;;;;1999.90;999.90;;;14.00;99.90;;;;;;4969986;28;20274;-72
2023/11/14 10:29:55;;;;;;;1999.90;999.90;;;13.90;99.90;;;;;;4975087;28;20081;-72
2023/11/14 10:32:22;;;;;;;1999.90;999.90;;;14.00;99.90;;;;;;4967741;28;20038;-72
2023/11/14 10:34:48;;;;;;;1999.90;999.90;;;14.00;99.90;;;;;;4973996;28;20110;-73
2023/11/14 10:37:29;;;;;;;1999.90;999.90;;;14.00;99.90;;;;;;5003911;28;20022;-73
2023/11/14 10:39:56;;;;;;;1999.90;999.90;;;13.90;99.90;;;;;;4970314;28;20042;-74
2023/11/14 10:42:22;;;;;;;1999.90;999.90;;;14.00;99.90;;;;;;4978338;28;20050;-73
2023/11/14 10:45:03;;;;;;;1999.90;999.90;;;14.00;99.90;;;;;;4976495;28;20421;-72
2023/11/14 10:47:41;;;;;;;1999.90;999.90;;;14.00;99.90;;;;;;4976313;28;20366;-73
2023/11/14 10:50:28;;;;;;;1999.90;999.90;;;14.10;99.90;;;;;;4976868;28;20026;-72
2023/11/14 10:52:59;;;;;;;1999.90;999.90;;;14.10;99.90;;;;;;4978640;28;20039;-73
2023/11/14 10:55:26;;;;;;;1999.90;999.90;;;14.00;99.90;;;;;;4977196;28;20076;-73
2023/11/14 10:57:54;;;;;;;1999.90;999.90;;;14.00;99.90;;;;;;4970766;28;20066;-73
2023/11/14 11:00:21;;;;;;;1999.90;999.90;;;14.00;99.90;;;;;;4988648;28;20033;-72
2023/11/14 11:02:50;;;;;;;1999.90;999.90;;;14.00;99.90;;;;;;4973283;28;20061;-72
2023/11/14 11:05:17;;;;;;;1999.90;999.90;;;14.00;99.90;;;;;;4969392;28;20018;-73
2023/11/14 11:07:43;;;;;;;1999.90;999.90;;;14.00;99.90;;;;;;4961563;28;20380;-73
2023/11/14 11:10:10;;;;;;;1999.90;999.90;;;13.90;99.90;;;;;;4973032;28;20412;-71
2023/11/14 11:12:39;;;;;;;1999.90;999.90;;;14.00;99.90;;;;;;5026424;28;20575;-72
2023/11/14 11:15:09;;;;;;;1999.90;999.90;;;13.90;99.90;;;;;;4963108;28;20592;-73
2023/11/14 11:17:46;;;;;;;1999.90;999.90;;;14.00;99.90;;;;;;4982711;28;20034;-72
2023/11/14 11:20:27;;;;;;;1999.90;999.90;;;13.90;99.90;;;;;;4970498;28;20023;-71
2023/11/14 11:23:08;;;;;;;1999.90;999.90;;;13.90;99.90;;;;;;4980572;28;20060;-72
2023/11/14 11:25:39;;;;;;;1999.90;999.90;;;13.90;99.90;;;;;;4977632;28;20031;-73
2023/11/14 11:28:31;;;;;;;1999.90;999.90;;;13.80;99.90;;;;;;4965580;28;20015;-72
2023/11/14 11:31:11;;;;;;;1999.90;999.90;;;13.90;99.90;;;;;;4973098;28;20027;-72
2023/11/14 11:33:39;;;;;;;1999.90;999.90;;;13.80;99.90;;;;;;4977706;28;20034;-71
2023/11/14 11:36:29;;;;;;;1999.90;999.90;;;13.80;99.90;;;;;;4967887;28;20053;-72
2023/11/14 11:39:13;;;;;;;1999.90;999.90;;;13.90;99.90;;;;;;4971040;28;20038;-73
2023/11/14 11:41:57;;;;;;;1999.90;999.90;;;13.80;99.90;;;;;;4963136;28;20034;-72
2023/11/14 11:44:37;;;;;;;1999.90;999.90;;;13.80;99.90;;;;;;4976337;28;20749;-72
2023/11/14 11:47:03;;;;;;;1999.90;999.90;;;13.90;99.90;;;;;;4976317;28;20019;-72
2023/11/14 11:49:30;;;;;;;1999.90;999.90;;;13.90;99.90;;;;;;4967556;28;20019;-73
2023/11/14 11:52:10;;;;;;;1999.90;999.90;;;13.90;99.90;;;;;;4969100;28;20038;-73
2023/11/14 11:54:36;;;;;;;1999.90;999.90;;;13.80;99.90;;;;;;4974312;28;20031;-74
2023/11/14 11:57:15;;;;;;;1999.90;999.90;;;13.80;99.90;;;;;;4981563;28;20347;-73
2023/11/14 11:59:43;;;;;;;1999.90;999.90;;;13.80;99.90;;;;;;4974060;28;20031;-73
2023/11/14 12:02:11;;;;;;;1999.90;999.90;;;13.70;99.90;;;;;;4972677;28;20313;-72
2023/11/14 12:04:38;;;;;;;1999.90;999.90;;;13.80;99.90;;;;;;4971619;28;20405;-72
2023/11/14 12:07:04;;;;;;;1999.90;999.90;;;13.70;99.90;;;;;;4971663;28;20109;-72
2023/11/14 12:09:32;;;;;;;1999.90;999.90;;;13.80;99.90;;;;;;4979420;28;20352;-73
2023/11/14 12:12:01;;;;;;;1999.90;999.90;;;13.70;99.90;;;;;;4971884;28;20332;-72
2023/11/14 12:14:26;;;;;;;1999.90;999.90;;;13.70;99.90;;;;;;4973561;28;20027;-73
2023/11/14 12:16:52;;;;;;;1999.90;999.90;;;13.80;99.90;;;;;;4974825;28;20111;-73
2023/11/14 12:19:19;;;;;;;1999.90;999.90;;;13.80;99.90;;;;;;4959256;28;20413;-73
2023/11/14 12:21:45;;;;;;;1999.90;999.90;;;13.80;99.90;;;;;;4966871;28;20422;-72
2023/11/14 12:24:12;;;;;;;1999.90;999.90;;;13.70;99.90;;;;;;4967908;28;20433;-73
2023/11/14 12:26:38;;;;;;;1999.90;999.90;;;13.70;99.90;;;;;;4971176;28;20318;-74
2023/11/14 12:29:07;;;;;;;1999.90;999.90;;;13.70;99.90;;;;;;4972189;28;20019;-72